Wetterdaten: Woche 14.11.16 - 20.11.16 (KW46)
Datum Zeit Temp. A. Feuchte A. Luftdruck Regen Wind Richtung Taupunkt Windchill Windben
14.11.2016 00:00 -0,8 C 95 % 1028,6 hPa 0,0 l/m 1,2 km/h (1 Bft) S-SW -1,6 C -0,8 C 3,4 km/h (1 Bft)
14.11.2016 01:00 -0,8 C 92 % 1028,8 hPa 0,0 l/m 2,5 km/h (1 Bft) S-SW -1,9 C -0,8 C 7,6 km/h (2 Bft)
14.11.2016 02:00 -1,1 C 91 % 1029,1 hPa 0,0 l/m 2,3 km/h (1 Bft) S-SW -2,5 C -1,1 C 7,1 km/h (2 Bft)
14.11.2016 03:00 -1,5 C 90 % 1029,1 hPa 0,0 l/m 1,9 km/h (1 Bft) SW -2,9 C -1,5 C 5,9 km/h (2 Bft)
14.11.2016 04:00 -1,8 C 90 % 1029,5 hPa 0,0 l/m 2,2 km/h (1 Bft) W-NW -3,2 C -1,8 C 6,4 km/h (2 Bft)
14.11.2016 05:00 -2,0 C 91 % 1029,9 hPa 0,0 l/m 2,0 km/h (1 Bft) W-SW -3,3 C -2,0 C 5,0 km/h (1 Bft)
14.11.2016 06:00 -2,1 C 91 % 1030,3 hPa 0,0 l/m 2,2 km/h (1 Bft) W -3,3 C -2,0 C 5,4 km/h (2 Bft)
14.11.2016 07:00 -2,1 C 90 % 1030,8 hPa 0,0 l/m 2,1 km/h (1 Bft) NW -3,5 C -2,1 C 7,0 km/h (2 Bft)
14.11.2016 08:00 -2,2 C 89 % 1031,4 hPa 0,0 l/m 1,8 km/h (1 Bft) S-SW -3,7 C -2,2 C 5,3 km/h (1 Bft)
14.11.2016 09:00 -2,1 C 89 % 1032,2 hPa 0,0 l/m 1,8 km/h (1 Bft) W-NW -3,7 C -2,1 C 5,1 km/h (1 Bft)
14.11.2016 10:00 -1,9 C 89 % 1032,5 hPa 0,0 l/m 1,3 km/h (1 Bft) SW -3,5 C -1,9 C 4,3 km/h (1 Bft)
14.11.2016 11:00 -1,7 C 88 % 1032,8 hPa 0,0 l/m 2,1 km/h (1 Bft) W-NW -3,5 C -1,7 C 4,9 km/h (1 Bft)
14.11.2016 12:00 -1,5 C 87 % 1032,5 hPa 0,0 l/m 1,6 km/h (1 Bft) NW -3,3 C -1,5 C 3,1 km/h (1 Bft)
14.11.2016 13:00 -1,2 C 86 % 1032,6 hPa 0,0 l/m 1,2 km/h (1 Bft) O -3,3 C -1,2 C 2,9 km/h (1 Bft)
14.11.2016 14:00 -1,1 C 85 % 1032,6 hPa 0,0 l/m 2,1 km/h (1 Bft) NO -3,3 C -1,1 C 3,8 km/h (1 Bft)
14.11.2016 15:00 -1,3 C 86 % 1032,5 hPa 0,0 l/m 1,8 km/h (1 Bft) O -3,4 C -1,3 C 3,4 km/h (1 Bft)
14.11.2016 16:00 -1,5 C 87 % 1032,6 hPa 0,0 l/m 1,4 km/h (1 Bft) W-NW -3,4 C -1,5 C 2,7 km/h (1 Bft)
14.11.2016 17:00 -1,8 C 88 % 1033,1 hPa 0,0 l/m 0,7 km/h (0 Bft) N -3,5 C -1,8 C 2,1 km/h (1 Bft)
14.11.2016 18:00 -1,8 C 88 % 1033,3 hPa 0,0 l/m 1,8 km/h (1 Bft) O -3,5 C -1,8 C 4,1 km/h (1 Bft)
14.11.2016 19:00 -1,9 C 87 % 1033,4 hPa 0,0 l/m 2,3 km/h (1 Bft) NO -3,9 C -1,9 C 6,4 km/h (2 Bft)
14.11.2016 20:00 -1,9 C 88 % 1033,6 hPa 0,0 l/m 1,0 km/h (0 Bft) NO -3,7 C -1,9 C 4,0 km/h (1 Bft)
14.11.2016 21:00 -1,8 C 88 % 1033,5 hPa 0,0 l/m 2,1 km/h (1 Bft) NO -3,5 C -1,8 C 4,9 km/h (1 Bft)
14.11.2016 22:00 -1,7 C 89 % 1033,4 hPa 0,0 l/m 1,9 km/h (1 Bft) NO -3,3 C -1,7 C 5,9 km/h (2 Bft)
14.11.2016 23:00 -1,7 C 90 % 1033,1 hPa 0,0 l/m 1,9 km/h (1 Bft) N-NO -3,1 C -1,7 C 5,1 km/h (1 Bft)
15.11.2016 00:00 -1,6 C 90 % 1032,9 hPa 0,0 l/m 1,8 km/h (1 Bft) O-NO -3,0 C -1,6 C 4,2 km/h (1 Bft)
15.11.2016 01:00 -1,7 C 90 % 1032,5 hPa 0,0 l/m 2,1 km/h (1 Bft) O-NO -3,0 C -1,7 C 5,5 km/h (2 Bft)
15.11.2016 02:00 -1,7 C 91 % 1032,1 hPa 0,0 l/m 1,8 km/h (1 Bft) N-NO -3,0 C -1,7 C 5,6 km/h (2 Bft)
15.11.2016 03:00 -1,7 C 92 % 1032,0 hPa 0,0 l/m 1,6 km/h (1 Bft) N-NO -2,9 C -1,7 C 4,4 km/h (1 Bft)
15.11.2016 04:00 -1,5 C 92 % 1032,1 hPa 0,0 l/m 1,7 km/h (1 Bft) NO -2,6 C -1,5 C 4,4 km/h (1 Bft)
15.11.2016 05:00 -1,3 C 92 % 1032,3 hPa 0,0 l/m 1,2 km/h (1 Bft) N-NO -2,4 C -1,3 C 3,4 km/h (1 Bft)
15.11.2016 06:00 -1,1 C 92 % 1032,3 hPa 0,0 l/m 2,0 km/h (1 Bft) N-NO -2,3 C -1,1 C 4,4 km/h (1 Bft)
15.11.2016 07:00 -0,9 C 91 % 1032,5 hPa 0,0 l/m 3,2 km/h (1 Bft) O-NO -2,2 C -0,9 C 7,1 km/h (2 Bft)
15.11.2016 08:00 -0,8 C 90 % 1032,4 hPa 0,0 l/m 2,5 km/h (1 Bft) NO -2,1 C -0,8 C 6,0 km/h (2 Bft)
15.11.2016 09:00 -0,2 C 89 % 1032,5 hPa 0,0 l/m 3,1 km/h (1 Bft) N-NO -1,8 C -0,2 C 7,1 km/h (2 Bft)
15.11.2016 10:00 0,6 C 87 % 1032,6 hPa 0,0 l/m 3,0 km/h (1 Bft) NO -1,4 C 0,6 C 6,7 km/h (2 Bft)
15.11.2016 11:00 2,2 C 79 % 1032,0 hPa 0,0 l/m 4,6 km/h (1 Bft) NO -1,1 C 2,1 C 9,9 km/h (2 Bft)
15.11.2016 12:00 3,6 C 72 % 1031,3 hPa 0,0 l/m 5,8 km/h (2 Bft) NO -1,0 C 3,4 C 11,8 km/h (2 Bft)
15.11.2016 13:00 4,5 C 67 % 1030,9 hPa 0,0 l/m 3,7 km/h (1 Bft) N-NO -1,0 C 4,5 C 8,4 km/h (2 Bft)
15.11.2016 14:00 4,7 C 65 % 1030,7 hPa 0,0 l/m 3,3 km/h (1 Bft) N-NO -1,4 C 4,7 C 6,9 km/h (2 Bft)
15.11.2016 15:00 3,9 C 70 % 1030,5 hPa 0,8 l/m 3,1 km/h (1 Bft) O-NO -1,1 C 3,9 C 6,7 km/h (2 Bft)
15.11.2016 16:00 2,2 C 87 % 1030,2 hPa 0,5 l/m 3,5 km/h (1 Bft) NO 0,3 C 2,2 C 7,6 km/h (2 Bft)
15.11.2016 17:00 2,2 C 92 % 1030,3 hPa 0,0 l/m 2,7 km/h (1 Bft) NO 1,1 C 2,2 C 5,5 km/h (2 Bft)
15.11.2016 18:00 2,8 C 94 % 1030,2 hPa 0,0 l/m 3,8 km/h (1 Bft) NO 1,9 C 2,8 C 9,2 km/h (2 Bft)
15.11.2016 19:00 3,2 C 96 % 1029,8 hPa 0,0 l/m 3,1 km/h (1 Bft) NO 2,6 C 3,2 C 8,4 km/h (2 Bft)
15.11.2016 20:00 3,1 C 96 % 1029,9 hPa 0,0 l/m 2,9 km/h (1 Bft) N-NO 2,6 C 3,1 C 6,8 km/h (2 Bft)
15.11.2016 21:00 3,5 C 97 % 1029,4 hPa 0,3 l/m 4,3 km/h (1 Bft) O-NO 3,1 C 3,5 C 9,9 km/h (2 Bft)
15.11.2016 22:00 3,8 C 97 % 1029,1 hPa 0,3 l/m 3,4 km/h (1 Bft) NO 3,3 C 3,8 C 7,6 km/h (2 Bft)
15.11.2016 23:00 4,3 C 97 % 1028,7 hPa 0,0 l/m 2,9 km/h (1 Bft) NO 3,8 C 4,3 C 7,2 km/h (2 Bft)
16.11.2016 00:00 5,1 C 98 % 1028,1 hPa 0,0 l/m 2,6 km/h (1 Bft) O-NO 4,7 C 5,1 C 5,4 km/h (1 Bft)
16.11.2016 01:00 5,8 C 97 % 1027,5 hPa 0,0 l/m 2,7 km/h (1 Bft) O-NO 5,4 C 5,8 C 6,8 km/h (2 Bft)
16.11.2016 02:00 6,0 C 97 % 1027,1 hPa 0,0 l/m 1,8 km/h (1 Bft) NO 5,6 C 6,0 C 4,9 km/h (1 Bft)
16.11.2016 03:00 6,1 C 97 % 1026,5 hPa 0,0 l/m 1,9 km/h (1 Bft) O-NO 5,7 C 6,1 C 5,8 km/h (2 Bft)
16.11.2016 04:00 6,3 C 97 % 1025,8 hPa 0,3 l/m 3,0 km/h (1 Bft) O-NO 5,9 C 6,3 C 8,8 km/h (2 Bft)
16.11.2016 05:00 6,5 C 97 % 1025,2 hPa 0,0 l/m 3,1 km/h (1 Bft) NO 6,1 C 6,5 C 6,5 km/h (2 Bft)
16.11.2016 06:00 6,4 C 97 % 1024,8 hPa 0,0 l/m 3,8 km/h (1 Bft) O-NO 5,9 C 6,4 C 6,8 km/h (2 Bft)
16.11.2016 07:00 6,4 C 97 % 1024,6 hPa 0,3 l/m 3,2 km/h (1 Bft) NO 6,0 C 6,4 C 6,2 km/h (2 Bft)
16.11.2016 08:00 6,7 C 97 % 1024,1 hPa 0,0 l/m 1,5 km/h (1 Bft) NO 6,2 C 6,7 C 4,8 km/h (1 Bft)
16.11.2016 09:00 7,0 C 97 % 1023,7 hPa 0,0 l/m 3,5 km/h (1 Bft) O-NO 6,5 C 7,0 C 8,7 km/h (2 Bft)
16.11.2016 10:00 7,6 C 97 % 1023,3 hPa 0,0 l/m 3,9 km/h (1 Bft) O-NO 7,2 C 7,6 C 9,4 km/h (2 Bft)
16.11.2016 11:00 8,1 C 97 % 1022,7 hPa 0,3 l/m 3,4 km/h (1 Bft) O 7,7 C 8,1 C 7,5 km/h (2 Bft)
16.11.2016 12:00 8,3 C 97 % 1021,9 hPa 1,0 l/m 4,7 km/h (1 Bft) NO 7,8 C 8,2 C 10,1 km/h (2 Bft)
16.11.2016 13:00 8,9 C 97 % 1020,9 hPa 1,0 l/m 4,0 km/h (1 Bft) O 8,4 C 8,9 C 9,7 km/h (2 Bft)
16.11.2016 14:00 9,1 C 97 % 1020,3 hPa 0,3 l/m 3,9 km/h (1 Bft) O-NO 8,6 C 9,1 C 10,6 km/h (2 Bft)
16.11.2016 15:00 9,2 C 97 % 1019,8 hPa 0,0 l/m 4,6 km/h (1 Bft) O-NO 8,7 C 9,2 C 11,5 km/h (2 Bft)
16.11.2016 16:00 8,8 C 96 % 1019,5 hPa 0,3 l/m 5,6 km/h (2 Bft) O-NO 8,2 C 8,6 C 15,3 km/h (3 Bft)
16.11.2016 17:00 8,4 C 96 % 1019,1 hPa 0,0 l/m 5,5 km/h (2 Bft) O-NO 7,8 C 8,2 C 14,0 km/h (3 Bft)
16.11.2016 18:00 8,4 C 96 % 1019,1 hPa 0,0 l/m 6,0 km/h (2 Bft) O 7,8 C 8,0 C 13,7 km/h (3 Bft)
16.11.2016 19:00 8,2 C 95 % 1018,6 hPa 0,0 l/m 4,2 km/h (1 Bft) NO 7,5 C 8,1 C 13,4 km/h (3 Bft)
16.11.2016 20:00 8,0 C 94 % 1018,4 hPa 0,0 l/m 4,0 km/h (1 Bft) NO 7,1 C 8,0 C 12,2 km/h (2 Bft)
16.11.2016 21:00 7,8 C 94 % 1018,3 hPa 0,0 l/m 5,8 km/h (2 Bft) O-NO 6,9 C 7,7 C 14,2 km/h (3 Bft)
16.11.2016 22:00 7,9 C 94 % 1018,1 hPa 0,0 l/m 6,6 km/h (2 Bft) O-NO 6,9 C 7,5 C 16,8 km/h (3 Bft)
16.11.2016 23:00 7,9 C 93 % 1017,8 hPa 0,0 l/m 5,0 km/h (1 Bft) O 6,8 C 7,8 C 14,6 km/h (3 Bft)
17.11.2016 00:00 7,6 C 95 % 1017,2 hPa 0,3 l/m 6,4 km/h (2 Bft) O-NO 6,8 C 7,0 C 14,1 km/h (3 Bft)
17.11.2016 01:00 7,2 C 95 % 1016,8 hPa 0,0 l/m 6,0 km/h (2 Bft) O-NO 6,4 C 6,8 C 14,8 km/h (3 Bft)
17.11.2016 02:00 6,9 C 96 % 1016,5 hPa 0,5 l/m 5,8 km/h (2 Bft) O-NO 6,3 C 6,8 C 13,0 km/h (3 Bft)
17.11.2016 03:00 6,9 C 97 % 1015,8 hPa 0,5 l/m 5,6 km/h (2 Bft) O-NO 6,4 C 6,8 C 12,2 km/h (2 Bft)
17.11.2016 04:00 6,9 C 97 % 1015,0 hPa 0,3 l/m 4,2 km/h (1 Bft) O-NO 6,5 C 6,9 C 9,8 km/h (2 Bft)
17.11.2016 05:00 7,0 C 97 % 1014,4 hPa 0,3 l/m 2,8 km/h (1 Bft) O-NO 6,5 C 7,0 C 6,0 km/h (2 Bft)
17.11.2016 06:00 7,1 C 97 % 1014,3 hPa 0,3 l/m 3,5 km/h (1 Bft) N-NO 6,6 C 6,9 C 9,3 km/h (2 Bft)
17.11.2016 07:00 7,5 C 95 % 1014,1 hPa 0,0 l/m 6,4 km/h (2 Bft) NO 6,7 C 7,1 C 16,2 km/h (3 Bft)
17.11.2016 08:00 7,5 C 95 % 1014,1 hPa 0,0 l/m 5,3 km/h (1 Bft) NO 6,8 C 7,5 C 15,3 km/h (3 Bft)
17.11.2016 09:00 7,7 C 94 % 1014,0 hPa 0,0 l/m 6,2 km/h (2 Bft) O-NO 6,8 C 7,5 C 14,9 km/h (3 Bft)
17.11.2016 10:00 7,9 C 94 % 1013,9 hPa 0,0 l/m 5,4 km/h (2 Bft) O-NO 7,0 C 7,7 C 13,6 km/h (3 Bft)
17.11.2016 11:00 8,5 C 92 % 1013,7 hPa 0,0 l/m 4,8 km/h (1 Bft) NO 7,2 C 8,4 C 12,6 km/h (2 Bft)
17.11.2016 12:00 8,9 C 90 % 1013,2 hPa 0,0 l/m 5,7 km/h (2 Bft) NO 7,3 C 8,6 C 12,0 km/h (2 Bft)
17.11.2016 13:00 9,3 C 89 % 1012,3 hPa 0,3 l/m 6,6 km/h (2 Bft) N-NO 7,6 C 8,8 C 16,2 km/h (3 Bft)
17.11.2016 14:00 9,6 C 88 % 1011,8 hPa 0,0 l/m 9,1 km/h (2 Bft) NO 7,7 C 7,7 C 21,0 km/h (4 Bft)
17.11.2016 15:00 9,2 C 89 % 1011,5 hPa 0,0 l/m 7,0 km/h (2 Bft) NO 7,6 C 8,6 C 16,5 km/h (3 Bft)
17.11.2016 16:00 9,1 C 90 % 1011,5 hPa 0,0 l/m 7,2 km/h (2 Bft) O-NO 7,4 C 8,4 C 17,3 km/h (3 Bft)
17.11.2016 17:00 9,1 C 88 % 1010,9 hPa 0,0 l/m 9,2 km/h (2 Bft) O-NO 7,3 C 7,2 C 18,2 km/h (3 Bft)
17.11.2016 18:00 9,2 C 87 % 1010,5 hPa 0,0 l/m 8,7 km/h (2 Bft) NO 7,1 C 7,6 C 18,3 km/h (3 Bft)
17.11.2016 19:00 9,4 C 86 % 1009,5 hPa 0,0 l/m 10,5 km/h (2 Bft) O 7,2 C 6,7 C 24,8 km/h (4 Bft)
17.11.2016 20:00 9,7 C 84 % 1009,3 hPa 0,0 l/m 11,4 km/h (2 Bft) NO 7,0 C 6,5 C 27,2 km/h (5 Bft)
17.11.2016 21:00 9,6 C 83 % 1009,1 hPa 0,0 l/m 9,4 km/h (2 Bft) O 6,9 C 7,5 C 22,1 km/h (4 Bft)
17.11.2016 22:00 9,9 C 82 % 1008,2 hPa 0,0 l/m 9,8 km/h (2 Bft) O-SO 7,1 C 7,7 C 23,3 km/h (4 Bft)
17.11.2016 23:00 10,5 C 82 % 1007,2 hPa 0,0 l/m 10,6 km/h (2 Bft) O-NO 7,6 C 7,9 C 26,4 km/h (4 Bft)
18.11.2016 00:00 10,9 C 81 % 1006,8 hPa 0,0 l/m 11,9 km/h (2 Bft) O-NO 7,7 C 7,7 C 24,0 km/h (4 Bft)
18.11.2016 01:00 11,2 C 79 % 1006,0 hPa 0,0 l/m 11,6 km/h (2 Bft) O 7,6 C 8,2 C 25,1 km/h (4 Bft)
18.11.2016 02:00 11,4 C 77 % 1005,2 hPa 0,0 l/m 9,6 km/h (2 Bft) NO 7,5 C 9,4 C 21,9 km/h (4 Bft)
18.11.2016 03:00 10,0 C 85 % 1004,7 hPa 0,8 l/m 5,3 km/h (1 Bft) NO 7,6 C 9,9 C 14,0 km/h (3 Bft)
18.11.2016 04:00 8,2 C 93 % 1004,5 hPa 1,5 l/m 4,1 km/h (1 Bft) NO 7,2 C 7,9 C 9,6 km/h (2 Bft)
18.11.2016 05:00 9,7 C 91 % 1003,8 hPa 0,0 l/m 7,2 km/h (2 Bft) O-NO 8,2 C 8,8 C 14,6 km/h (3 Bft)
18.11.2016 06:00 10,4 C 87 % 1003,6 hPa 0,0 l/m 7,1 km/h (2 Bft) O-NO 8,2 C 9,7 C 15,9 km/h (3 Bft)
18.11.2016 07:00 11,3 C 78 % 1003,2 hPa 0,0 l/m 9,9 km/h (2 Bft) NO 7,5 C 9,1 C 24,5 km/h (4 Bft)
18.11.2016 08:00 12,0 C 72 % 1002,9 hPa 0,3 l/m 10,9 km/h (2 Bft) N-NO 7,1 C 9,5 C 26,1 km/h (4 Bft)
18.11.2016 09:00 12,5 C 68 % 1002,5 hPa 0,0 l/m 12,0 km/h (2 Bft) NO 6,8 C 9,5 C 30,0 km/h (5 Bft)
18.11.2016 10:00 10,3 C 86 % 1003,4 hPa 3,0 l/m 10,6 km/h (2 Bft) O-NO 8,1 C 7,7 C 25,9 km/h (4 Bft)
18.11.2016 11:00 9,4 C 92 % 1003,8 hPa 1,3 l/m 9,8 km/h (2 Bft) N-NO 8,1 C 7,1 C 23,0 km/h (4 Bft)
18.11.2016 12:00 10,3 C 86 % 1003,5 hPa 0,0 l/m 11,5 km/h (2 Bft) O-NO 8,1 C 7,2 C 24,6 km/h (4 Bft)
18.11.2016 13:00 10,4 C 83 % 1003,4 hPa 0,0 l/m 11,6 km/h (2 Bft) O-NO 7,8 C 7,3 C 26,2 km/h (4 Bft)
18.11.2016 14:00 8,8 C 86 % 1003,9 hPa 3,3 l/m 7,3 km/h (2 Bft) O-NO 6,6 C 7,7 C 20,1 km/h (4 Bft)
18.11.2016 15:00 6,5 C 93 % 1005,9 hPa 3,6 l/m 2,3 km/h (1 Bft) O-NO 5,4 C 6,5 C 7,2 km/h (2 Bft)
18.11.2016 16:00 5,3 C 93 % 1006,7 hPa 3,0 l/m 5,8 km/h (2 Bft) O 4,2 C 5,3 C 15,7 km/h (3 Bft)
18.11.2016 17:00 5,1 C 94 % 1007,5 hPa 2,0 l/m 5,3 km/h (1 Bft) O-NO 4,2 C 4,8 C 12,0 km/h (2 Bft)
18.11.2016 18:00 4,9 C 94 % 1008,0 hPa 1,3 l/m 5,4 km/h (1 Bft) O-NO 4,0 C 4,5 C 9,6 km/h (2 Bft)
18.11.2016 19:00 4,6 C 95 % 1008,2 hPa 0,0 l/m 0,4 km/h (0 Bft) N 3,9 C 4,6 C 1,3 km/h (1 Bft)
18.11.2016 20:00 4,6 C 96 % 1008,7 hPa 0,8 l/m 1,3 km/h (1 Bft) O-NO 4,0 C 4,6 C 2,6 km/h (1 Bft)
18.11.2016 21:00 4,6 C 96 % 1009,3 hPa 0,0 l/m 0,9 km/h (0 Bft) N 4,0 C 4,6 C 2,2 km/h (1 Bft)
18.11.2016 22:00 4,6 C 95 % 1009,6 hPa 0,3 l/m 0,4 km/h (0 Bft) N 3,9 C 4,6 C 1,3 km/h (1 Bft)
18.11.2016 23:00 4,5 C 95 % 1009,5 hPa 0,0 l/m 1,0 km/h (0 Bft) N 3,9 C 4,5 C 2,1 km/h (1 Bft)
19.11.2016 00:00 4,4 C 96 % 1009,3 hPa 0,0 l/m 0,1 km/h (0 Bft) N 3,7 C 4,4 C 0,7 km/h (0 Bft)
19.11.2016 01:00 4,4 C 95 % 1009,1 hPa 0,0 l/m 1,9 km/h (1 Bft) O-SO 3,7 C 4,4 C 5,2 km/h (1 Bft)
19.11.2016 02:00 4,5 C 95 % 1008,7 hPa 0,0 l/m 1,4 km/h (1 Bft) O 3,8 C 4,5 C 4,3 km/h (1 Bft)
19.11.2016 03:00 4,6 C 95 % 1008,2 hPa 0,0 l/m 2,5 km/h (1 Bft) O-NO 3,8 C 4,6 C 6,5 km/h (2 Bft)
19.11.2016 04:00 4,6 C 95 % 1008,1 hPa 0,5 l/m 1,1 km/h (1 Bft) O 3,9 C 4,6 C 3,7 km/h (1 Bft)
19.11.2016 05:00 4,4 C 95 % 1007,8 hPa 0,0 l/m 0,8 km/h (0 Bft) O 3,7 C 4,4 C 2,6 km/h (1 Bft)
19.11.2016 06:00 4,4 C 96 % 1007,6 hPa 0,3 l/m 0,9 km/h (0 Bft) O 3,8 C 4,4 C 3,4 km/h (1 Bft)
19.11.2016 07:00 4,7 C 96 % 1007,2 hPa 0,5 l/m 1,1 km/h (1 Bft) N-NO 4,1 C 4,7 C 3,7 km/h (1 Bft)
19.11.2016 08:00 4,6 C 96 % 1008,2 hPa 1,5 l/m 2,7 km/h (1 Bft) O-NO 4,0 C 4,6 C 7,4 km/h (2 Bft)
19.11.2016 09:00 4,6 C 95 % 1008,4 hPa 0,5 l/m 4,0 km/h (1 Bft) O-NO 3,9 C 4,6 C 10,1 km/h (2 Bft)
19.11.2016 10:00 3,5 C 94 % 1009,6 hPa 1,8 l/m 4,3 km/h (1 Bft) O-NO 2,6 C 3,4 C 13,0 km/h (3 Bft)
19.11.2016 11:00 2,7 C 95 % 1010,6 hPa 2,3 l/m 4,3 km/h (1 Bft) O-NO 1,9 C 2,7 C 10,6 km/h (2 Bft)
19.11.2016 12:00 2,8 C 96 % 1010,9 hPa 0,3 l/m 3,8 km/h (1 Bft) O-NO 2,2 C 2,8 C 6,5 km/h (2 Bft)
19.11.2016 13:00 3,3 C 95 % 1011,4 hPa 0,0 l/m 5,0 km/h (1 Bft) O-NO 2,5 C 3,2 C 11,4 km/h (2 Bft)
19.11.2016 14:00 3,7 C 94 % 1011,7 hPa 0,0 l/m 4,7 km/h (1 Bft) O-NO 2,8 C 3,6 C 12,2 km/h (2 Bft)
19.11.2016 15:00 3,8 C 92 % 1011,8 hPa 0,0 l/m 5,2 km/h (1 Bft) O 2,6 C 3,6 C 12,6 km/h (3 Bft)
19.11.2016 16:00 3,3 C 92 % 1012,2 hPa 0,0 l/m 5,2 km/h (1 Bft) NO 2,1 C 3,3 C 13,3 km/h (3 Bft)
19.11.2016 17:00 3,1 C 92 % 1012,5 hPa 0,0 l/m 5,9 km/h (2 Bft) NO 2,0 C 2,8 C 12,6 km/h (3 Bft)
19.11.2016 18:00 2,9 C 92 % 1012,4 hPa 0,0 l/m 5,4 km/h (1 Bft) O-NO 1,7 C 2,7 C 11,9 km/h (2 Bft)
19.11.2016 19:00 2,2 C 92 % 1012,2 hPa 0,0 l/m 2,1 km/h (1 Bft) NO 1,0 C 2,2 C 5,6 km/h (2 Bft)
19.11.2016 20:00 1,5 C 94 % 1011,8 hPa 0,0 l/m 1,3 km/h (1 Bft) NO 0,6 C 1,5 C 4,3 km/h (1 Bft)
19.11.2016 21:00 1,1 C 93 % 1011,7 hPa 0,0 l/m 1,6 km/h (1 Bft) O 0,0 C 1,1 C 5,2 km/h (1 Bft)
19.11.2016 22:00 0,3 C 94 % 1011,3 hPa 0,0 l/m 0,5 km/h (0 Bft) O -0,5 C 0,3 C 2,3 km/h (1 Bft)
19.11.2016 23:00 0,0 C 95 % 1010,8 hPa 0,0 l/m 0,2 km/h (0 Bft) O -0,7 C 0,0 C 1,7 km/h (1 Bft)
20.11.2016 00:00 -0,3 C 96 % 1010,4 hPa 0,0 l/m 0,3 km/h (0 Bft) O -0,8 C -0,3 C 1,3 km/h (1 Bft)
20.11.2016 01:00 -0,1 C 97 % 1009,7 hPa 0,0 l/m 0,8 km/h (0 Bft) S-SO -0,5 C -0,1 C 2,8 km/h (1 Bft)
20.11.2016 02:00 1,6 C 95 % 1009,1 hPa 0,0 l/m 2,6 km/h (1 Bft) NO 0,9 C 1,6 C 7,0 km/h (2 Bft)
20.11.2016 03:00 2,0 C 93 % 1007,7 hPa 0,0 l/m 3,0 km/h (1 Bft) O 0,9 C 2,0 C 7,6 km/h (2 Bft)
20.11.2016 04:00 2,0 C 92 % 1007,2 hPa 0,0 l/m 2,8 km/h (1 Bft) O 0,8 C 2,0 C 7,9 km/h (2 Bft)
20.11.2016 05:00 1,5 C 91 % 1006,9 hPa 0,0 l/m 1,9 km/h (1 Bft) O-NO 0,2 C 1,5 C 4,4 km/h (1 Bft)
20.11.2016 06:00 0,5 C 94 % 1006,8 hPa 0,0 l/m 0,5 km/h (0 Bft) O-NO -0,4 C 0,5 C 2,2 km/h (1 Bft)
20.11.2016 07:00 1,3 C 89 % 1006,5 hPa 0,0 l/m 3,7 km/h (1 Bft) O-SO -0,2 C 1,3 C 9,3 km/h (2 Bft)
20.11.2016 08:00 1,9 C 87 % 1006,5 hPa 0,0 l/m 5,5 km/h (2 Bft) O-NO -0,0 C 1,8 C 14,4 km/h (3 Bft)
20.11.2016 09:00 3,4 C 83 % 1006,6 hPa 0,0 l/m 5,9 km/h (2 Bft) O 0,7 C 3,1 C 15,0 km/h (3 Bft)
20.11.2016 10:00 5,3 C 80 % 1006,8 hPa 0,0 l/m 6,7 km/h (2 Bft) O 2,1 C 4,7 C 15,8 km/h (3 Bft)
20.11.2016 11:00 7,9 C 73 % 1006,9 hPa 0,0 l/m 6,1 km/h (2 Bft) NO 3,4 C 7,6 C 14,5 km/h (3 Bft)
20.11.2016 12:00 9,4 C 69 % 1006,4 hPa 0,0 l/m 5,7 km/h (2 Bft) NO 4,1 C 9,2 C 12,6 km/h (3 Bft)
20.11.2016 13:00 11,5 C 66 % 1005,9 hPa 0,0 l/m 5,8 km/h (2 Bft) NW 5,3 C 11,3 C 13,4 km/h (3 Bft)
20.11.2016 14:00 11,8 C 63 % 1005,9 hPa 0,0 l/m 7,0 km/h (2 Bft) NO 5,0 C 11,3 C 16,9 km/h (3 Bft)
20.11.2016 15:00 10,9 C 66 % 1006,1 hPa 0,0 l/m 6,4 km/h (2 Bft) O-NO 4,8 C 10,2 C 15,6 km/h (3 Bft)
20.11.2016 16:00 9,4 C 72 % 1006,7 hPa 0,0 l/m 2,9 km/h (1 Bft) NO 4,6 C 9,4 C 7,6 km/h (2 Bft)
20.11.2016 17:00 7,3 C 79 % 1007,2 hPa 0,0 l/m 3,6 km/h (1 Bft) NO 3,9 C 7,3 C 7,5 km/h (2 Bft)
20.11.2016 18:00 6,2 C 82 % 1007,4 hPa 0,0 l/m 1,7 km/h (1 Bft) NO 3,4 C 6,2 C 4,0 km/h (1 Bft)
20.11.2016 19:00 4,3 C 88 % 1007,5 hPa 0,0 l/m 0,6 km/h (0 Bft) O-SO 2,5 C 4,3 C 3,1 km/h (1 Bft)
20.11.2016 20:00 4,0 C 88 % 1007,5 hPa 0,0 l/m 3,1 km/h (1 Bft) O-SO 2,1 C 3,9 C 7,6 km/h (2 Bft)
20.11.2016 21:00 4,7 C 83 % 1007,6 hPa 0,0 l/m 1,8 km/h (1 Bft) O-SO 2,1 C 4,7 C 4,9 km/h (1 Bft)
20.11.2016 22:00 2,2 C 91 % 1007,6 hPa 0,0 l/m 0,3 km/h (0 Bft) O-SO 0,9 C 2,2 C 2,0 km/h (1 Bft)
20.11.2016 23:00 1,1 C 94 % 1007,6 hPa 0,0 l/m 0,3 km/h (0 Bft) O-SO 0,2 C 1,1 C 1,7 km/h (1 Bft)
Min-Datum _ 14.11.16 20.11.16 18.11.16 - 20.11.16 - 14.11.16 14.11.16 20.11.16
_ Min-Zeit 09:00 14:20 09:20 - 23:25 - 19:45 09:00 23:25
Minimum _ -2,2 C 62 % 1002,3 hPa - 0,0 km/h (0 Bft) - -4,1 C -2,2 C 0,0 km/h (0 Bft)
Max-Datum _ 18.11.16 20.11.16 14.11.16 18.11.16 18.11.16 - 16.11.16 20.11.16 18.11.16
_ Max-Zeit 09:20 02:00 20:30 15:05 12:07 - 15:10 13:45 11:56
Maximum _ 12,6 C 98 % 1033,8 hPa 3,6 l/m 17,7 km/h
O-NO (3 Bft)
- 8,8 C 12,1 C 45,1 km/h
O (6 Bft)
Durchschnitt _ 4,5 C 90 % 1017,3 hPa #36,1 l/m 4,1 km/h (1 Bft) O-NO 3,0 C 4,2 C 9,9 km/h (2 Bft)